Time;durP1;ratioP1;P1;durP2;ratioP2;P2;SDS_P1;SDS_P2;PMS_P1;PMS_P2;Temp;Humidity;BMP_temperature;BMP_pressure;BME280_temperature;BME280_humidity;BME280_pressure;Samples;Min_cycle;Max_cycle;Signal;HPM_P1;HPM_P2
2023/04/03 00:00:53;;;;;;;7.15;1.70;;;;;;;;;;5085402;28;20125;-79
2023/04/03 00:03:21;;;;;;;7.07;1.80;;;;;;;;;;5090090;28;20055;-79
2023/04/03 00:05:50;;;;;;;6.60;1.85;;;;;;;;;;5087822;28;20032;-79
2023/04/03 00:08:17;;;;;;;7.15;2.03;;;;;;;;;;5091084;28;20456;-79
2023/04/03 00:10:49;;;;;;;3.90;1.35;;;;;;;;;;5107518;28;20051;-79
2023/04/03 00:13:17;;;;;;;6.60;2.00;;;;;;;;;;5090850;28;20127;-79
2023/04/03 00:15:45;;;;;;;5.93;1.63;;;;;;;;;;5088598;28;20909;-79
2023/04/03 00:18:13;;;;;;;6.97;2.05;;;;;;;;;;5092607;28;20047;-79
2023/04/03 00:20:41;;;;;;;5.03;1.83;;;;;;;;;;5090971;28;20043;-79
2023/04/03 00:23:09;;;;;;;6.70;1.80;;;;;;;;;;5091582;28;20052;-79
2023/04/03 00:25:41;;;;;;;7.45;1.85;;;;;;;;;;5089168;28;20028;-79
2023/04/03 00:28:13;;;;;;;10.27;1.60;;;;;;;;;;5088415;28;20086;-79
2023/04/03 00:30:41;;;;;;;6.35;1.88;;;;;;;;;;5087512;28;20115;-79
2023/04/03 00:33:17;;;;;;;4.43;1.83;;;;;;;;;;5082418;28;20067;-79
2023/04/03 00:35:45;;;;;;;5.20;1.90;;;;;;;;;;5104142;27;20051;-79
2023/04/03 00:38:37;;;;;;;5.05;1.35;;;;;;;;;;5088767;28;20036;-79
2023/04/03 00:41:05;;;;;;;4.03;1.63;;;;;;;;;;5086435;28;20073;-79
2023/04/03 00:43:33;;;;;;;4.30;1.65;;;;;;;;;;5089729;28;20048;-79
2023/04/03 00:46:01;;;;;;;7.82;1.67;;;;;;;;;;5085169;28;20056;-79
2023/04/03 00:48:51;;;;;;;4.40;1.80;;;;;;;;;;5086644;28;20044;-79
2023/04/03 00:51:26;;;;;;;4.90;1.83;;;;;;;;;;5070734;28;20072;-79
2023/04/03 00:53:59;;;;;;;11.38;2.08;;;;;;;;;;5066465;28;20518;-79
2023/04/03 00:56:52;;;;;;;4.38;1.85;;;;;;;;;;5080421;28;20036;-79
2023/04/03 00:59:25;;;;;;;10.20;2.38;;;;;;;;;;5084878;28;20401;-79
2023/04/03 01:02:00;;;;;;;4.72;1.95;;;;;;;;;;5103733;28;20170;-79
2023/04/03 01:04:32;;;;;;;11.48;2.80;;;;;;;;;;5087858;28;20048;-79
2023/04/03 01:07:16;;;;;;;4.03;2.15;;;;;;;;;;5069214;28;20044;-79
2023/04/03 01:09:47;;;;;;;5.25;2.03;;;;;;;;;;5100363;28;20263;-79
2023/04/03 01:12:35;;;;;;;5.70;2.30;;;;;;;;;;5087471;28;20094;-79
2023/04/03 01:15:07;;;;;;;4.18;1.80;;;;;;;;;;5087223;28;20047;-78
2023/04/03 01:17:38;;;;;;;10.65;2.03;;;;;;;;;;5086858;28;20517;-79
2023/04/03 01:20:31;;;;;;;5.05;1.90;;;;;;;;;;5082673;28;20115;-79
2023/04/03 01:23:12;;;;;;;7.55;1.85;;;;;;;;;;5084913;28;20043;-79
2023/04/03 01:25:48;;;;;;;6.45;2.05;;;;;;;;;;5098690;28;20169;-79
2023/04/03 01:28:35;;;;;;;5.60;1.88;;;;;;;;;;5087448;28;20505;-79
2023/04/03 01:31:20;;;;;;;5.97;2.20;;;;;;;;;;5089081;28;20040;-79
2023/04/03 01:33:49;;;;;;;4.60;1.73;;;;;;;;;;5082162;28;20047;-79
2023/04/03 01:36:24;;;;;;;6.40;2.38;;;;;;;;;;5079444;28;20406;-79
2023/04/03 01:38:52;;;;;;;8.70;2.22;;;;;;;;;;5087649;28;20043;-79
2023/04/03 01:41:21;;;;;;;6.20;2.03;;;;;;;;;;5085856;28;20040;-79
2023/04/03 01:44:18;;;;;;;10.65;2.78;;;;;;;;;;5086095;28;20569;-78
2023/04/03 01:46:45;;;;;;;8.82;2.25;;;;;;;;;;5086011;28;20036;-79
2023/04/03 01:49:13;;;;;;;5.93;2.30;;;;;;;;;;5084472;28;20399;-79
2023/04/03 01:51:41;;;;;;;16.30;2.33;;;;;;;;;;5086176;28;20056;-79
2023/04/03 01:54:17;;;;;;;4.68;2.25;;;;;;;;;;5072165;28;20048;-79
2023/04/03 01:57:11;;;;;;;10.07;2.63;;;;;;;;;;5086862;28;20472;-79
2023/04/03 01:59:39;;;;;;;7.85;2.38;;;;;;;;;;5084372;28;20043;-79
2023/04/03 02:02:20;;;;;;;6.45;2.83;;;;;;;;;;5087551;28;20032;-79
2023/04/03 02:05:13;;;;;;;8.45;2.70;;;;;;;;;;5088593;28;20559;-80
2023/04/03 02:07:45;;;;;;;6.20;2.47;;;;;;;;;;5086997;28;20048;-79
2023/04/03 02:10:13;;;;;;;5.60;2.38;;;;;;;;;;5086135;28;20054;-80
2023/04/03 02:12:50;;;;;;;7.78;2.35;;;;;;;;;;5062819;28;20039;-79
2023/04/03 02:15:17;;;;;;;4.57;1.92;;;;;;;;;;5093460;28;20119;-79
2023/04/03 02:17:45;;;;;;;7.15;2.03;;;;;;;;;;5085603;28;20094;-79
2023/04/03 02:20:19;;;;;;;10.88;2.50;;;;;;;;;;5086713;28;20036;-79
2023/04/03 02:22:47;;;;;;;10.35;2.30;;;;;;;;;;5063044;28;20064;-79
2023/04/03 02:25:20;;;;;;;3.85;1.70;;;;;;;;;;5082314;28;20116;-80
2023/04/03 02:27:47;;;;;;;7.70;2.60;;;;;;;;;;5102913;28;20039;-79
2023/04/03 02:30:39;;;;;;;4.97;2.00;;;;;;;;;;5080405;28;20024;-79
2023/04/03 02:33:07;;;;;;;6.45;2.00;;;;;;;;;;5088101;28;20040;-79
2023/04/03 02:35:39;;;;;;;8.32;2.35;;;;;;;;;;5104148;28;20118;-79
2023/04/03 02:38:07;;;;;;;6.80;2.72;;;;;;;;;;5102808;28;20048;-79
2023/04/03 02:40:35;;;;;;;6.10;1.83;;;;;;;;;;5084713;28;20060;-79
2023/04/03 02:43:03;;;;;;;5.30;1.88;;;;;;;;;;5052110;28;20117;-79
2023/04/03 02:45:31;;;;;;;3.42;1.52;;;;;;;;;;5084840;28;20451;-79
2023/04/03 02:47:59;;;;;;;6.28;1.50;;;;;;;;;;5087863;28;20131;-79
2023/04/03 02:50:31;;;;;;;8.23;2.47;;;;;;;;;;5087426;28;20041;-80
2023/04/03 02:55:53;;;;;;;4.55;1.58;;;;;;;;;;5087410;28;20040;-79
2023/04/03 02:58:25;;;;;;;4.85;1.98;;;;;;;;;;5101484;28;20052;-79
2023/04/03 03:00:55;;;;;;;7.07;2.10;;;;;;;;;;5085084;28;20067;-79
2023/04/03 03:03:23;;;;;;;4.38;1.83;;;;;;;;;;5087813;28;20071;-79
2023/04/03 03:06:10;;;;;;;9.07;1.88;;;;;;;;;;5086237;28;20094;-79
2023/04/03 03:08:39;;;;;;;4.38;2.08;;;;;;;;;;5084373;28;20093;-79
2023/04/03 03:11:07;;;;;;;6.32;1.63;;;;;;;;;;5081547;28;20507;-79
2023/04/03 03:13:35;;;;;;;5.95;2.45;;;;;;;;;;5081161;28;20036;-79
2023/04/03 03:16:03;;;;;;;4.68;1.98;;;;;;;;;;5105370;28;20277;-79
2023/04/03 03:18:31;;;;;;;5.95;2.28;;;;;;;;;;5089869;28;20079;-79
2023/04/03 03:21:00;;;;;;;5.13;2.00;;;;;;;;;;5093415;28;20040;-79
2023/04/03 03:23:32;;;;;;;6.03;1.95;;;;;;;;;;5083734;28;20126;-79
2023/04/03 03:26:07;;;;;;;5.43;1.33;;;;;;;;;;5083136;28;20066;-79
2023/04/03 03:28:36;;;;;;;3.38;1.67;;;;;;;;;;5105730;28;20044;-79
2023/04/03 03:31:05;;;;;;;5.53;1.83;;;;;;;;;;5082633;28;20048;-79
2023/04/03 03:33:35;;;;;;;2.78;1.52;;;;;;;;;;5090476;28;20518;-79
2023/04/03 03:36:03;;;;;;;4.40;1.65;;;;;;;;;;5091459;28;20036;-79
2023/04/03 03:38:31;;;;;;;4.53;1.80;;;;;;;;;;5105776;28;20048;-79
2023/04/03 03:41:03;;;;;;;3.97;1.92;;;;;;;;;;5091622;28;20525;-79
2023/04/03 03:43:37;;;;;;;8.25;2.20;;;;;;;;;;5106267;28;20055;-79
2023/04/03 03:46:31;;;;;;;5.03;2.15;;;;;;;;;;5090228;28;20349;-79
2023/04/03 03:48:59;;;;;;;3.60;1.48;;;;;;;;;;5072984;28;20048;-79
2023/04/03 03:51:33;;;;;;;6.38;2.08;;;;;;;;;;5104661;28;20127;-79
2023/04/03 03:54:01;;;;;;;5.65;1.70;;;;;;;;;;5090648;28;20044;-79
2023/04/03 03:56:53;;;;;;;5.53;1.55;;;;;;;;;;5082855;28;20032;-79
2023/04/03 03:59:48;;;;;;;9.57;2.42;;;;;;;;;;5089990;28;20170;-79
2023/04/03 04:02:19;;;;;;;5.10;1.85;;;;;;;;;;5087266;28;20067;-79
2023/04/03 04:04:47;;;;;;;5.78;2.10;;;;;;;;;;5071557;28;20036;-79
2023/04/03 04:08:05;;;;;;;6.72;1.80;;;;;;;;;;5086902;28;20047;-79
2023/04/03 04:10:57;;;;;;;4.80;2.20;;;;;;;;;;5090879;28;20028;-79
2023/04/03 04:13:31;;;;;;;3.00;1.60;;;;;;;;;;5103879;28;20036;-79
2023/04/03 04:15:59;;;;;;;4.28;2.08;;;;;;;;;;5085203;28;20042;-79
2023/04/03 04:18:27;;;;;;;6.85;2.63;;;;;;;;;;5081668;28;20491;-79
2023/04/03 04:20:55;;;;;;;6.07;1.33;;;;;;;;;;5088225;28;20063;-79
2023/04/03 04:23:23;;;;;;;3.58;1.30;;;;;;;;;;5088567;28;20042;-79
2023/04/03 04:25:51;;;;;;;7.93;1.98;;;;;;;;;;5071380;28;20039;-79
2023/04/03 04:28:19;;;;;;;8.82;2.10;;;;;;;;;;5086564;28;20111;-79
2023/04/03 04:31:11;;;;;;;4.38;1.70;;;;;;;;;;5087949;28;20040;-79
2023/04/03 04:33:39;;;;;;;3.67;1.83;;;;;;;;;;5086982;28;20058;-79
2023/04/03 04:36:09;;;;;;;5.55;1.77;;;;;;;;;;5090950;28;20496;-79
2023/04/03 04:39:01;;;;;;;3.70;1.65;;;;;;;;;;5088409;28;20143;-79
2023/04/03 04:41:31;;;;;;;4.95;1.75;;;;;;;;;;5091364;28;21068;-79
2023/04/03 04:44:25;;;;;;;5.35;2.25;;;;;;;;;;5081198;28;20177;-79
2023/04/03 04:47:21;;;;;;;3.67;1.63;;;;;;;;;;5081077;28;20028;-79
2023/04/03 04:49:49;;;;;;;3.28;1.73;;;;;;;;;;5102326;28;20055;-79
2023/04/03 04:52:17;;;;;;;3.75;1.80;;;;;;;;;;5105010;28;20036;-79
2023/04/03 04:54:45;;;;;;;3.35;1.30;;;;;;;;;;5096494;28;20075;-79
2023/04/03 04:57:17;;;;;;;3.55;1.63;;;;;;;;;;5101628;28;20040;-79
2023/04/03 04:59:45;;;;;;;5.97;1.75;;;;;;;;;;5088801;28;20496;-79
2023/04/03 05:02:13;;;;;;;8.13;2.00;;;;;;;;;;5104504;28;20046;-79
2023/04/03 05:05:07;;;;;;;4.05;1.50;;;;;;;;;;5086485;28;20032;-79
2023/04/03 05:08:00;;;;;;;4.95;1.52;;;;;;;;;;5087478;28;20054;-79
2023/04/03 05:13:23;;;;;;;7.93;1.98;;;;;;;;;;5083327;28;20104;-79
2023/04/03 05:16:07;;;;;;;7.80;2.70;;;;;;;;;;5072426;28;20093;-79
2023/04/03 05:18:39;;;;;;;4.90;1.75;;;;;;;;;;5070069;28;20060;-78
2023/04/03 05:21:18;;;;;;;3.53;1.65;;;;;;;;;;5083780;28;20061;-79
2023/04/03 05:23:47;;;;;;;5.63;2.10;;;;;;;;;;5080646;28;20403;-78
2023/04/03 05:26:28;;;;;;;3.55;1.67;;;;;;;;;;5099652;28;20028;-78
2023/04/03 05:29:07;;;;;;;5.40;1.90;;;;;;;;;;5086167;28;20480;-80
2023/04/03 05:31:35;;;;;;;4.47;2.47;;;;;;;;;;5085929;28;20050;-80
2023/04/03 05:34:03;;;;;;;4.00;2.00;;;;;;;;;;5082896;28;20093;-79
2023/04/03 05:36:33;;;;;;;9.35;2.30;;;;;;;;;;5080192;28;20044;-79
2023/04/03 05:39:18;;;;;;;5.03;1.85;;;;;;;;;;5086250;28;20051;-80
2023/04/03 05:42:01;;;;;;;8.02;2.30;;;;;;;;;;5101095;28;20128;-80
2023/04/03 05:44:29;;;;;;;6.13;2.42;;;;;;;;;;5071928;28;20097;-80
2023/04/03 05:47:03;;;;;;;8.05;2.10;;;;;;;;;;5083142;28;20127;-80
2023/04/03 05:49:31;;;;;;;4.25;1.73;;;;;;;;;;5087196;28;20400;-80
2023/04/03 05:52:37;;;;;;;8.82;2.50;;;;;;;;;;5067397;28;20032;-80
2023/04/03 05:55:11;;;;;;;7.93;1.95;;;;;;;;;;5088272;28;20139;-79
2023/04/03 05:57:45;;;;;;;3.72;1.65;;;;;;;;;;5102461;28;20147;-80
2023/04/03 06:00:37;;;;;;;6.22;1.80;;;;;;;;;;5078195;28;20520;-80
2023/04/03 06:03:06;;;;;;;3.88;1.85;;;;;;;;;;5081542;28;20079;-80
2023/04/03 06:05:42;;;;;;;5.65;1.88;;;;;;;;;;5086843;28;20044;-80
2023/04/03 06:08:35;;;;;;;5.82;2.05;;;;;;;;;;5087865;28;20032;-80
2023/04/03 06:11:03;;;;;;;4.75;1.65;;;;;;;;;;5085159;28;20040;-80
2023/04/03 06:13:33;;;;;;;3.45;1.83;;;;;;;;;;5069530;28;20501;-80
2023/04/03 06:16:02;;;;;;;6.95;2.00;;;;;;;;;;5100451;28;20105;-80
2023/04/03 06:18:29;;;;;;;8.82;2.38;;;;;;;;;;5089645;28;20036;-80
2023/04/03 06:21:00;;;;;;;6.25;1.80;;;;;;;;;;5082879;28;20028;-80
2023/04/03 06:23:29;;;;;;;4.97;1.80;;;;;;;;;;5101187;28;20047;-80
2023/04/03 06:25:57;;;;;;;8.48;2.00;;;;;;;;;;5080414;28;20036;-80
2023/04/03 06:28:49;;;;;;;5.90;2.30;;;;;;;;;;5088248;28;20126;-80
2023/04/03 06:31:21;;;;;;;3.75;1.58;;;;;;;;;;5086301;28;20046;-80
2023/04/03 06:34:13;;;;;;;9.23;2.28;;;;;;;;;;5087371;28;20036;-80
2023/04/03 06:37:05;;;;;;;5.95;2.13;;;;;;;;;;5086320;28;20389;-80
2023/04/03 06:39:57;;;;;;;8.85;2.00;;;;;;;;;;5088022;28;20070;-81
2023/04/03 06:42:49;;;;;;;6.20;2.35;;;;;;;;;;5084082;28;20131;-80
2023/04/03 06:45:21;;;;;;;8.70;2.60;;;;;;;;;;5095498;28;20040;-81
2023/04/03 06:47:54;;;;;;;5.05;2.40;;;;;;;;;;5098439;28;20058;-80
2023/04/03 06:50:47;;;;;;;4.32;1.80;;;;;;;;;;5085534;28;20036;-81
2023/04/03 06:53:15;;;;;;;4.82;1.80;;;;;;;;;;5089769;28;20135;-80
2023/04/03 06:55:43;;;;;;;4.70;1.60;;;;;;;;;;5085617;28;20513;-81
2023/04/03 06:58:11;;;;;;;5.00;1.70;;;;;;;;;;5085222;28;20043;-80
2023/04/03 07:00:43;;;;;;;6.13;1.85;;;;;;;;;;5084149;28;20063;-81
2023/04/03 07:03:11;;;;;;;5.97;1.58;;;;;;;;;;5088564;28;20492;-81
2023/04/03 07:05:40;;;;;;;4.25;1.70;;;;;;;;;;5090770;28;20085;-80
2023/04/03 07:08:07;;;;;;;5.05;1.75;;;;;;;;;;5068067;28;20048;-80
2023/04/03 07:10:35;;;;;;;11.23;1.48;;;;;;;;;;5070497;28;20072;-80
2023/04/03 07:13:07;;;;;;;3.97;1.02;;;;;;;;;;5091522;28;20051;-80
2023/04/03 07:15:36;;;;;;;5.88;1.90;;;;;;;;;;5088439;28;20044;-81
2023/04/03 07:18:05;;;;;;;6.57;1.30;;;;;;;;;;5086936;28;20044;-80
2023/04/03 07:20:33;;;;;;;10.23;1.50;;;;;;;;;;5089446;28;20098;-81
2023/04/03 07:23:25;;;;;;;6.90;1.60;;;;;;;;;;5087365;28;20116;-80
2023/04/03 07:26:02;;;;;;;10.25;1.50;;;;;;;;;;5066838;28;20175;-81
2023/04/03 07:28:29;;;;;;;3.03;1.35;;;;;;;;;;5102323;28;20440;-81
2023/04/03 07:31:08;;;;;;;4.82;1.58;;;;;;;;;;5105601;28;20522;-81
2023/04/03 07:33:37;;;;;;;3.58;1.45;;;;;;;;;;5082920;28;20028;-81
2023/04/03 07:36:15;;;;;;;4.85;0.95;;;;;;;;;;5081305;28;20036;-81
2023/04/03 07:38:43;;;;;;;7.75;1.73;;;;;;;;;;5083396;28;20066;-81
2023/04/03 07:41:17;;;;;;;4.00;1.42;;;;;;;;;;5090832;28;20067;-81
2023/04/03 07:43:51;;;;;;;4.13;1.10;;;;;;;;;;5083506;28;20492;-80
2023/04/03 07:46:20;;;;;;;5.30;1.25;;;;;;;;;;5078771;28;20036;-81
2023/04/03 07:49:13;;;;;;;4.00;0.80;;;;;;;;;;5084440;28;20036;-81
2023/04/03 07:51:41;;;;;;;3.30;1.02;;;;;;;;;;5072753;28;20040;-81
2023/04/03 07:54:09;;;;;;;2.17;0.95;;;;;;;;;;5084630;28;20381;-81
2023/04/03 07:56:37;;;;;;;3.67;1.30;;;;;;;;;;5086107;28;20047;-81
2023/04/03 07:59:05;;;;;;;2.22;1.05;;;;;;;;;;5100203;28;20048;-81
2023/04/03 08:01:43;;;;;;;6.85;0.90;;;;;;;;;;5083909;28;20052;-81
2023/04/03 08:04:15;;;;;;;5.18;1.08;;;;;;;;;;5079939;28;20484;-81
2023/04/03 08:06:43;;;;;;;1.92;0.82;;;;;;;;;;5084282;28;20032;-82
2023/04/03 08:09:39;;;;;;;5.78;1.30;;;;;;;;;;5101886;28;20448;-83
2023/04/03 08:12:31;;;;;;;4.00;1.10;;;;;;;;;;5099572;28;20121;-83
2023/04/03 08:15:00;;;;;;;3.38;1.13;;;;;;;;;;5087070;28;20424;-83
2023/04/03 08:17:27;;;;;;;5.65;1.13;;;;;;;;;;5085814;28;20044;-82
2023/04/03 08:19:59;;;;;;;1.50;0.63;;;;;;;;;;5086395;28;20032;-82
2023/04/03 08:22:27;;;;;;;3.83;1.00;;;;;;;;;;5070284;28;20525;-82
2023/04/03 08:25:19;;;;;;;2.95;0.95;;;;;;;;;;5087801;28;20032;-82
2023/04/03 08:27:51;;;;;;;4.97;1.23;;;;;;;;;;5082163;28;20444;-82
2023/04/03 08:30:19;;;;;;;2.35;0.93;;;;;;;;;;5086076;28;20044;-82
2023/04/03 08:33:11;;;;;;;2.10;0.90;;;;;;;;;;5069566;28;20365;-82
2023/04/03 08:35:43;;;;;;;5.18;1.00;;;;;;;;;;5088706;28;20040;-82
2023/04/03 08:38:11;;;;;;;1.80;0.70;;;;;;;;;;5083110;28;20046;-82
2023/04/03 08:40:40;;;;;;;1.70;0.68;;;;;;;;;;5103776;28;20472;-82
2023/04/03 08:43:40;;;;;;;6.72;0.88;;;;;;;;;;5088594;28;20067;-82
2023/04/03 08:46:13;;;;;;;1.65;0.70;;;;;;;;;;5103245;27;20135;-83
2023/04/03 08:48:42;;;;;;;2.03;0.65;;;;;;;;;;5089888;28;20407;-82
2023/04/03 08:51:18;;;;;;;2.47;0.80;;;;;;;;;;5104789;28;20503;-83
2023/04/03 08:53:59;;;;;;;5.13;1.08;;;;;;;;;;5090055;28;20032;-82
2023/04/03 08:56:27;;;;;;;3.00;1.08;;;;;;;;;;5087741;28;20093;-82
2023/04/03 08:59:05;;;;;;;2.45;0.73;;;;;;;;;;5070856;28;20406;-82
2023/04/03 09:01:39;;;;;;;1.58;0.90;;;;;;;;;;5069591;28;20414;-82
2023/04/03 09:04:16;;;;;;;2.97;0.90;;;;;;;;;;5068890;28;20560;-82
2023/04/03 09:06:58;;;;;;;2.65;0.90;;;;;;;;;;5087269;28;20055;-82
2023/04/03 09:09:52;;;;;;;2.22;0.80;;;;;;;;;;5087785;28;20040;-82
2023/04/03 09:12:31;;;;;;;2.75;0.90;;;;;;;;;;5088068;28;20067;-82
2023/04/03 09:15:22;;;;;;;4.18;1.17;;;;;;;;;;5070598;28;21766;-82
2023/04/03 09:18:09;;;;;;;4.15;1.20;;;;;;;;;;5098619;28;20135;-82
2023/04/03 09:20:43;;;;;;;5.05;0.98;;;;;;;;;;5081069;28;20036;-82
2023/04/03 09:23:37;;;;;;;2.33;0.82;;;;;;;;;;5103753;28;20051;-83
2023/04/03 09:26:15;;;;;;;3.13;0.85;;;;;;;;;;5078337;28;20059;-83
2023/04/03 09:29:08;;;;;;;3.17;0.90;;;;;;;;;;5081658;28;20115;-83
2023/04/03 09:31:43;;;;;;;2.72;0.60;;;;;;;;;;5082553;28;20141;-82
2023/04/03 09:34:40;;;;;;;1.00;0.50;;;;;;;;;;5084450;28;20044;-82
2023/04/03 09:37:09;;;;;;;3.72;0.70;;;;;;;;;;5051352;28;20040;-82
2023/04/03 09:39:54;;;;;;;3.78;0.90;;;;;;;;;;5087356;28;20056;-82
2023/04/03 09:42:23;;;;;;;2.63;0.50;;;;;;;;;;5080753;28;20442;-82
2023/04/03 09:45:22;;;;;;;3.05;0.90;;;;;;;;;;5087175;28;20032;-82
2023/04/03 09:47:50;;;;;;;2.08;0.60;;;;;;;;;;5085868;28;20101;-82
2023/04/03 09:50:55;;;;;;;1.92;0.80;;;;;;;;;;5098029;28;20067;-82
2023/04/03 09:53:32;;;;;;;1.55;0.55;;;;;;;;;;5089393;28;20040;-83
2023/04/03 09:56:17;;;;;;;1.60;0.55;;;;;;;;;;5088186;28;20046;-82
2023/04/03 09:58:50;;;;;;;1.85;0.60;;;;;;;;;;5086271;28;20047;-83
2023/04/03 10:01:27;;;;;;;1.70;0.65;;;;;;;;;;5069568;28;20048;-83
2023/04/03 10:04:17;;;;;;;3.20;0.70;;;;;;;;;;5062609;28;20040;-82
2023/04/03 10:06:52;;;;;;;2.67;0.70;;;;;;;;;;5079267;28;20093;-83
2023/04/03 10:09:21;;;;;;;3.33;0.95;;;;;;;;;;5084549;28;20036;-82
2023/04/03 10:12:19;;;;;;;3.03;0.80;;;;;;;;;;5085443;28;20128;-82
2023/04/03 10:14:53;;;;;;;2.75;0.70;;;;;;;;;;5094976;28;20093;-83
2023/04/03 10:17:47;;;;;;;3.00;0.80;;;;;;;;;;5061464;28;20036;-82
2023/04/03 10:20:15;;;;;;;4.53;0.95;;;;;;;;;;5067257;28;20048;-82
2023/04/03 10:23:11;;;;;;;1.85;0.75;;;;;;;;;;5079471;28;20067;-83
2023/04/03 10:25:46;;;;;;;2.85;1.23;;;;;;;;;;5087024;28;20036;-82
2023/04/03 10:28:45;;;;;;;2.95;0.60;;;;;;;;;;5086826;28;20036;-83
2023/04/03 10:31:40;;;;;;;2.42;0.82;;;;;;;;;;5079634;28;20057;-83
2023/04/03 10:34:35;;;;;;;2.15;0.80;;;;;;;;;;5084857;28;20060;-83
2023/04/03 10:37:28;;;;;;;3.85;1.10;;;;;;;;;;5084391;28;20044;-82
2023/04/03 10:40:15;;;;;;;1.88;0.70;;;;;;;;;;5081655;28;20096;-82
2023/04/03 10:43:01;;;;;;;3.05;0.63;;;;;;;;;;5084512;28;20040;-83
2023/04/03 10:46:28;;;;;;;4.13;1.10;;;;;;;;;;5083868;28;20526;-83
2023/04/03 10:49:21;;;;;;;2.80;0.80;;;;;;;;;;5086201;28;20445;-83
2023/04/03 10:52:09;;;;;;;0.50;0.25;;;;;;;;;;5064377;28;20116;-83
2023/04/03 10:54:49;;;;;;;4.15;0.93;;;;;;;;;;5082464;28;20048;-82
2023/04/03 10:57:43;;;;;;;2.53;0.70;;;;;;;;;;5087220;28;20178;-82
2023/04/03 11:00:22;;;;;;;4.80;0.95;;;;;;;;;;5069079;28;20422;-82
2023/04/03 11:03:27;;;;;;;2.03;0.68;;;;;;;;;;5068433;28;20024;-82
2023/04/03 11:05:57;;;;;;;4.82;0.93;;;;;;;;;;5082597;28;20066;-83
2023/04/03 11:08:36;;;;;;;3.30;0.80;;;;;;;;;;5080366;28;20130;-83
2023/04/03 11:11:08;;;;;;;2.15;0.85;;;;;;;;;;5084731;28;20431;-83
2023/04/03 11:14:10;;;;;;;2.47;0.68;;;;;;;;;;5085270;28;20067;-83
2023/04/03 11:16:53;;;;;;;3.67;0.73;;;;;;;;;;5082538;28;20056;-83
2023/04/03 11:19:43;;;;;;;3.85;0.73;;;;;;;;;;5069074;28;20043;-82
2023/04/03 11:22:43;;;;;;;2.50;0.70;;;;;;;;;;4993590;28;20046;-83
2023/04/03 11:25:22;;;;;;;1.92;0.63;;;;;;;;;;4986938;28;20096;-83
2023/04/03 11:27:59;;;;;;;3.38;0.88;;;;;;;;;;5000002;28;20042;-82
2023/04/03 11:30:30;;;;;;;2.67;0.77;;;;;;;;;;4986772;28;20521;-82
2023/04/03 11:33:40;;;;;;;4.35;0.77;;;;;;;;;;4986033;28;20056;-82
2023/04/03 11:36:24;;;;;;;4.38;0.85;;;;;;;;;;4987354;28;20736;-82
2023/04/03 11:39:33;;;;;;;2.65;0.90;;;;;;;;;;4993210;28;20415;-82
2023/04/03 11:42:23;;;;;;;4.20;0.65;;;;;;;;;;5004928;28;20065;-82
2023/04/03 11:44:51;;;;;;;1.63;0.68;;;;;;;;;;4987698;28;20042;-81
2023/04/03 11:47:45;;;;;;;4.10;1.00;;;;;;;;;;5002959;28;20046;-79
2023/04/03 11:50:34;;;;;;;2.50;0.90;;;;;;;;;;5006921;28;20807;-80
2023/04/03 11:53:03;;;;;;;3.08;1.10;;;;;;;;;;5003729;28;20525;-80
2023/04/03 11:55:31;;;;;;;1.67;0.60;;;;;;;;;;4989260;28;20156;-80
2023/04/03 11:57:59;;;;;;;2.10;0.73;;;;;;;;;;5007725;28;20033;-80
2023/04/03 12:00:52;;;;;;;3.72;0.88;;;;;;;;;;5095906;28;20582;-80
2023/04/03 12:03:45;;;;;;;2.60;0.35;;;;;;;;;;5087995;28;20115;-79
2023/04/03 12:06:13;;;;;;;1.73;0.68;;;;;;;;;;5085724;28;20040;-79
2023/04/03 12:08:47;;;;;;;4.80;0.90;;;;;;;;;;5085413;28;20105;-79
2023/04/03 12:14:22;;;;;;;2.88;0.73;;;;;;;;;;5105212;28;20241;-82
2023/04/03 12:16:54;;;;;;;3.08;0.55;;;;;;;;;;5086254;28;20043;-81
2023/04/03 12:19:49;;;;;;;2.05;0.63;;;;;;;;;;5085208;28;20130;-79
2023/04/03 12:22:20;;;;;;;1.35;0.52;;;;;;;;;;5100824;28;20048;-80
2023/04/03 12:24:51;;;;;;;3.03;1.10;;;;;;;;;;5085310;28;20105;-80
2023/04/03 12:27:45;;;;;;;3.60;0.65;;;;;;;;;;5090924;28;20557;-81
2023/04/03 12:30:21;;;;;;;2.30;0.60;;;;;;;;;;5065190;28;20770;-80
2023/04/03 12:33:46;;;;;;;1.65;0.55;;;;;;;;;;5081477;28;20809;-80
2023/04/03 12:36:27;;;;;;;4.70;0.60;;;;;;;;;;5080122;28;20036;-80
2023/04/03 12:39:11;;;;;;;2.92;0.80;;;;;;;;;;5080403;28;20036;-80
2023/04/03 12:41:46;;;;;;;1.80;0.60;;;;;;;;;;5077176;28;20050;-80
2023/04/03 12:44:20;;;;;;;0.80;0.43;;;;;;;;;;5081807;28;20047;-80
2023/04/03 12:46:53;;;;;;;1.67;0.63;;;;;;;;;;5083096;28;20043;-80
2023/04/03 12:49:29;;;;;;;2.97;0.68;;;;;;;;;;5088630;28;20483;-81
2023/04/03 12:51:57;;;;;;;3.75;0.70;;;;;;;;;;5080416;28;20113;-80
2023/04/03 12:54:42;;;;;;;1.52;0.52;;;;;;;;;;5099040;27;20134;-80
2023/04/03 12:57:15;;;;;;;1.90;0.70;;;;;;;;;;5085087;28;20040;-80
2023/04/03 12:59:45;;;;;;;2.33;0.77;;;;;;;;;;5067442;28;20533;-80
2023/04/03 13:02:37;;;;;;;2.55;0.60;;;;;;;;;;5088655;28;20126;-80
2023/04/03 13:05:09;;;;;;;3.38;0.70;;;;;;;;;;5087059;28;20043;-80
2023/04/03 13:08:05;;;;;;;3.47;0.52;;;;;;;;;;5086647;28;20109;-80
2023/04/03 13:10:59;;;;;;;2.70;1.05;;;;;;;;;;5081906;28;20039;-80
2023/04/03 13:13:27;;;;;;;1.40;0.50;;;;;;;;;;5081308;28;20039;-80
2023/04/03 13:15:59;;;;;;;2.95;1.67;;;;;;;;;;5084163;28;20675;-79
2023/04/03 13:18:29;;;;;;;2.65;0.80;;;;;;;;;;5088030;28;20099;-80
2023/04/03 13:21:32;;;;;;;3.03;0.70;;;;;;;;;;5089755;28;20502;-80
2023/04/03 13:24:05;;;;;;;5.05;0.77;;;;;;;;;;5087402;28;20059;-79
2023/04/03 13:26:47;;;;;;;5.47;1.30;;;;;;;;;;5104038;28;20403;-80
2023/04/03 13:29:22;;;;;;;3.08;0.80;;;;;;;;;;5089909;28;20036;-80
2023/04/03 13:32:00;;;;;;;1.52;0.63;;;;;;;;;;5097584;28;20032;-79
2023/04/03 13:34:53;;;;;;;3.83;1.77;;;;;;;;;;5086555;28;20490;-79
2023/04/03 13:37:22;;;;;;;1.77;0.60;;;;;;;;;;5085822;28;20060;-80
2023/04/03 13:40:17;;;;;;;2.58;0.75;;;;;;;;;;5088718;28;20576;-80
2023/04/03 13:42:45;;;;;;;2.97;0.52;;;;;;;;;;5086486;28;20142;-80
2023/04/03 13:45:23;;;;;;;3.55;1.08;;;;;;;;;;5087025;28;20411;-79
2023/04/03 13:47:54;;;;;;;1.80;0.60;;;;;;;;;;5088501;28;20024;-79
2023/04/03 13:50:26;;;;;;;1.88;0.85;;;;;;;;;;5083449;28;20028;-79
2023/04/03 13:53:02;;;;;;;2.85;0.63;;;;;;;;;;5086210;28;20063;-80
2023/04/03 13:55:33;;;;;;;2.58;0.68;;;;;;;;;;5087882;28;20407;-80
2023/04/03 13:58:07;;;;;;;0.60;0.40;;;;;;;;;;5086898;28;20048;-79
2023/04/03 14:00:49;;;;;;;3.22;1.00;;;;;;;;;;5086830;28;20091;-81
2023/04/03 14:03:29;;;;;;;3.67;0.90;;;;;;;;;;5088436;28;20040;-80
2023/04/03 14:06:24;;;;;;;2.38;0.52;;;;;;;;;;5088067;28;20039;-79
2023/04/03 14:08:51;;;;;;;2.40;0.60;;;;;;;;;;5086715;28;20507;-80
2023/04/03 14:11:29;;;;;;;1.10;0.40;;;;;;;;;;5098536;28;20073;-80
2023/04/03 14:14:20;;;;;;;1.83;0.60;;;;;;;;;;5098936;28;20044;-80
2023/04/03 14:16:52;;;;;;;3.45;0.70;;;;;;;;;;5080560;28;20071;-79
2023/04/03 14:19:26;;;;;;;3.70;0.95;;;;;;;;;;5086983;28;20097;-79
2023/04/03 14:21:54;;;;;;;1.80;0.60;;;;;;;;;;5084657;28;20048;-79
2023/04/03 14:24:23;;;;;;;3.28;1.05;;;;;;;;;;5084724;28;20028;-79
2023/04/03 14:26:56;;;;;;;1.25;0.60;;;;;;;;;;5087787;28;20055;-80
2023/04/03 14:29:25;;;;;;;3.53;0.75;;;;;;;;;;5082882;28;20040;-79
2023/04/03 14:31:53;;;;;;;1.85;0.63;;;;;;;;;;5083767;28;20036;-79
2023/04/03 14:34:42;;;;;;;3.92;0.90;;;;;;;;;;5081587;28;20081;-79
2023/04/03 14:37:14;;;;;;;2.08;0.70;;;;;;;;;;5085565;28;20400;-79
2023/04/03 14:39:45;;;;;;;4.95;1.10;;;;;;;;;;5100793;28;20067;-80
2023/04/03 14:42:19;;;;;;;3.70;0.75;;;;;;;;;;5063256;28;20142;-79
2023/04/03 14:45:12;;;;;;;2.10;0.80;;;;;;;;;;5081501;28;20066;-79
2023/04/03 14:47:53;;;;;;;3.95;1.05;;;;;;;;;;5083497;28;20068;-80
2023/04/03 14:50:25;;;;;;;2.47;0.63;;;;;;;;;;5082654;28;20040;-80
2023/04/03 14:52:57;;;;;;;2.65;0.80;;;;;;;;;;5082189;28;20093;-80
2023/04/03 14:55:26;;;;;;;2.95;1.08;;;;;;;;;;5086329;28;20032;-80
2023/04/03 14:57:59;;;;;;;4.40;0.80;;;;;;;;;;5080599;28;20035;-80
2023/04/03 15:00:57;;;;;;;2.85;0.93;;;;;;;;;;5085660;28;20119;-80
2023/04/03 15:03:25;;;;;;;1.95;0.80;;;;;;;;;;5083637;28;20043;-80
2023/04/03 15:05:55;;;;;;;3.80;1.20;;;;;;;;;;5084273;28;20060;-80
2023/04/03 15:08:25;;;;;;;1.73;0.75;;;;;;;;;;5084598;28;20495;-82
2023/04/03 15:10:55;;;;;;;4.80;0.70;;;;;;;;;;5100645;28;20046;-79
2023/04/03 15:13:24;;;;;;;3.25;0.93;;;;;;;;;;5091008;28;20028;-80
2023/04/03 15:15:51;;;;;;;6.47;1.15;;;;;;;;;;5085559;28;20063;-79
2023/04/03 15:18:26;;;;;;;3.03;0.80;;;;;;;;;;5084140;28;20062;-79
2023/04/03 15:20:59;;;;;;;3.38;0.73;;;;;;;;;;5088561;28;20048;-79
2023/04/03 15:23:28;;;;;;;2.80;0.60;;;;;;;;;;5081267;28;20028;-79
2023/04/03 15:25:55;;;;;;;3.55;0.98;;;;;;;;;;5089351;28;20063;-80
2023/04/03 15:31:21;;;;;;;1.23;0.60;;;;;;;;;;5088754;28;20127;-79
2023/04/03 15:33:49;;;;;;;3.92;0.82;;;;;;;;;;5087596;28;21420;-79
2023/04/03 15:36:17;;;;;;;1.90;0.73;;;;;;;;;;5087275;28;20047;-81
2023/04/03 15:39:01;;;;;;;1.75;0.88;;;;;;;;;;5084929;28;20036;-82
2023/04/03 15:41:29;;;;;;;2.30;0.98;;;;;;;;;;5087764;28;20502;-80
2023/04/03 15:43:57;;;;;;;2.72;0.80;;;;;;;;;;5081594;28;20089;-82
2023/04/03 15:46:25;;;;;;;2.45;0.88;;;;;;;;;;5082931;28;20089;-82
2023/04/03 15:49:18;;;;;;;3.42;0.90;;;;;;;;;;5086551;28;20103;-82
2023/04/03 15:51:51;;;;;;;2.92;0.90;;;;;;;;;;5089933;28;20036;-82
2023/04/03 15:54:43;;;;;;;4.07;1.10;;;;;;;;;;5089555;28;20047;-82